Time;durP1;ratioP1;P1;durP2;ratioP2;P2;SDS_P1;SDS_P2;PMS_P1;PMS_P2;Temp;Humidity;BMP_temperature;BMP_pressure;BME280_temperature;BME280_humidity;BME280_pressure;Samples;Min_cycle;Max_cycle;Signal;HPM_P1;HPM_P2
2021/03/21 00:00:33;;;;;;;8.20;5.82;;;6.90;99.90;;;;;;4985262;28;20259;-81
2021/03/21 00:03:01;;;;;;;6.15;5.55;;;6.90;99.90;;;;;;4988764;28;20215;-83
2021/03/21 00:05:28;;;;;;;8.10;4.82;;;6.90;99.90;;;;;;4994627;28;20195;-79
2021/03/21 00:07:58;;;;;;;7.10;5.68;;;6.90;99.90;;;;;;5006684;28;20262;-79
2021/03/21 00:10:25;;;;;;;7.40;5.50;;;6.90;99.90;;;;;;4995920;28;20258;-78
2021/03/21 00:12:52;;;;;;;7.90;5.47;;;6.90;99.90;;;;;;4994189;28;20223;-78
2021/03/21 00:15:19;;;;;;;8.93;6.60;;;6.80;99.90;;;;;;4983944;28;20199;-80
2021/03/21 00:17:46;;;;;;;11.80;9.05;;;6.80;99.90;;;;;;4988033;28;20342;-83
2021/03/21 00:20:15;;;;;;;6.90;6.20;;;6.80;99.90;;;;;;4990377;28;20281;-83
2021/03/21 00:22:42;;;;;;;9.75;7.10;;;6.80;99.90;;;;;;4998923;28;20219;-81
2021/03/21 00:25:13;;;;;;;12.43;8.55;;;6.70;99.90;;;;;;4988388;28;20230;-82
2021/03/21 00:27:39;;;;;;;10.85;7.82;;;6.70;99.90;;;;;;4983278;28;20269;-81
2021/03/21 00:30:08;;;;;;;9.70;7.93;;;6.70;99.90;;;;;;4986583;28;20250;-82
2021/03/21 00:32:35;;;;;;;8.57;6.85;;;6.70;99.90;;;;;;4988323;28;20240;-82
2021/03/21 00:35:02;;;;;;;10.05;8.90;;;6.70;99.90;;;;;;4987898;28;20211;-80
2021/03/21 00:37:30;;;;;;;9.57;8.50;;;6.70;99.90;;;;;;4984684;28;20242;-82
2021/03/21 00:39:56;;;;;;;10.90;9.23;;;6.70;99.90;;;;;;4986424;28;20200;-81
2021/03/21 00:42:26;;;;;;;9.95;8.65;;;6.80;99.90;;;;;;4985978;28;20252;-82
2021/03/21 00:44:59;;;;;;;12.25;9.82;;;6.80;99.90;;;;;;4996861;28;20225;-81
2021/03/21 00:47:26;;;;;;;10.68;9.13;;;6.80;99.90;;;;;;4997650;28;20330;-81
2021/03/21 00:53:03;;;;;;;14.25;10.68;;;6.80;99.90;;;;;;4984745;28;20198;-81
2021/03/21 00:55:37;;;;;;;13.73;10.90;;;6.90;99.90;;;;;;4991422;28;20222;-80
2021/03/21 00:58:05;;;;;;;13.00;10.18;;;6.90;99.90;;;;;;4992472;28;20269;-82
2021/03/21 01:00:34;;;;;;;12.90;10.13;;;7.00;99.90;;;;;;4994757;28;20241;-81
2021/03/21 01:03:01;;;;;;;16.95;10.75;;;6.90;99.90;;;;;;4989772;28;20270;-82
2021/03/21 01:05:32;;;;;;;16.25;11.57;;;7.00;99.90;;;;;;4991798;28;20206;-82
2021/03/21 01:07:59;;;;;;;13.25;10.05;;;6.90;99.90;;;;;;4989425;28;20226;-79
2021/03/21 01:10:29;;;;;;;15.10;11.55;;;7.00;99.90;;;;;;4987180;28;20189;-80
2021/03/21 01:13:24;;;;;;;14.73;11.80;;;7.00;99.90;;;;;;4998163;28;20187;-79
2021/03/21 01:15:52;;;;;;;15.00;11.35;;;7.00;99.90;;;;;;4993797;28;20262;-82
2021/03/21 01:18:22;;;;;;;15.98;13.13;;;7.00;99.90;;;;;;4988771;28;20270;-81
2021/03/21 01:20:59;;;;;;;18.10;11.30;;;7.00;99.90;;;;;;4997899;28;20237;-81
2021/03/21 01:23:31;;;;;;;18.58;13.63;;;7.00;99.90;;;;;;4988665;28;20257;-80
2021/03/21 01:25:59;;;;;;;17.17;12.68;;;6.90;99.90;;;;;;4995866;28;20225;-81
2021/03/21 01:28:27;;;;;;;20.35;13.57;;;7.00;99.90;;;;;;5006380;28;20198;-82
2021/03/21 01:30:56;;;;;;;22.80;13.65;;;7.00;99.90;;;;;;5006793;28;20293;-80
2021/03/21 01:33:24;;;;;;;22.90;14.32;;;7.00;99.90;;;;;;4991333;28;20199;-82
2021/03/21 01:35:52;;;;;;;20.05;12.75;;;7.00;99.90;;;;;;4997243;28;20190;-82
2021/03/21 01:38:19;;;;;;;16.38;12.43;;;7.00;99.90;;;;;;4996205;28;20266;-84
2021/03/21 01:40:47;;;;;;;19.02;13.77;;;7.00;99.90;;;;;;4984880;28;20263;-81
2021/03/21 01:43:16;;;;;;;21.00;13.82;;;7.00;99.90;;;;;;4980923;28;20293;-81
2021/03/21 01:45:44;;;;;;;18.35;12.52;;;7.00;99.90;;;;;;4985694;28;20715;-82
2021/03/21 01:48:25;;;;;;;15.60;13.27;;;7.00;99.90;;;;;;4982847;28;20223;-82
2021/03/21 02:00:56;;;;;;;26.35;17.05;;;7.00;99.90;;;;;;4997314;28;20241;-81
2021/03/21 02:06:59;;;;;;;30.02;18.13;;;7.00;99.90;;;;;;4987749;28;20232;-81
2021/03/21 02:09:32;;;;;;;33.55;18.17;;;7.00;99.90;;;;;;4985893;28;20213;-82
2021/03/21 02:12:14;;;;;;;29.10;17.42;;;7.10;99.90;;;;;;4986783;28;20300;-82
2021/03/21 02:14:48;;;;;;;34.53;18.75;;;7.20;99.90;;;;;;4984112;28;20293;-83
2021/03/21 02:17:19;;;;;;;31.85;18.48;;;7.20;99.90;;;;;;4990167;28;20244;-83
2021/03/21 02:20:12;;;;;;;27.95;17.73;;;7.20;99.90;;;;;;4990010;28;20218;-80
2021/03/21 02:22:46;;;;;;;27.80;17.13;;;7.20;99.90;;;;;;4980872;28;20249;-80
2021/03/21 02:25:40;;;;;;;26.42;16.83;;;7.20;99.90;;;;;;4990938;28;20260;-80
2021/03/21 02:28:33;;;;;;;22.88;15.57;;;7.30;99.90;;;;;;4991048;28;20234;-78
2021/03/21 02:31:05;;;;;;;25.17;15.57;;;7.30;99.90;;;;;;4990933;28;20284;-80
2021/03/21 02:33:37;;;;;;;22.40;16.98;;;7.30;99.90;;;;;;4990065;28;20290;-82
2021/03/21 02:36:11;;;;;;;30.60;16.52;;;7.30;99.90;;;;;;4985928;28;20241;-82
2021/03/21 02:38:44;;;;;;;30.55;15.98;;;7.30;99.90;;;;;;4991749;28;20198;-81
2021/03/21 02:41:17;;;;;;;26.38;15.30;;;7.30;99.90;;;;;;4989505;28;20231;-82
2021/03/21 02:43:49;;;;;;;21.70;15.45;;;7.30;99.90;;;;;;4989618;28;20630;-83
2021/03/21 02:46:24;;;;;;;22.20;15.25;;;7.30;99.90;;;;;;4987387;28;20295;-82
2021/03/21 02:48:57;;;;;;;21.45;14.05;;;7.40;99.90;;;;;;4987309;28;20278;-83
2021/03/21 02:51:27;;;;;;;19.85;15.23;;;7.40;99.90;;;;;;4980520;28;20200;-82
2021/03/21 02:53:58;;;;;;;21.10;13.75;;;7.30;99.90;;;;;;4998870;28;20247;-78
2021/03/21 02:56:27;;;;;;;21.17;12.43;;;7.30;99.90;;;;;;4995646;28;20243;-77
2021/03/21 02:59:00;;;;;;;19.30;12.40;;;7.20;99.90;;;;;;5000490;28;20184;-77
2021/03/21 03:01:33;;;;;;;17.30;10.30;;;7.30;99.90;;;;;;5001240;28;20220;-78
2021/03/21 03:04:05;;;;;;;16.10;11.43;;;7.40;99.90;;;;;;5001281;28;20287;-77
2021/03/21 03:06:37;;;;;;;11.30;8.88;;;7.30;99.90;;;;;;5000715;28;20271;-78
2021/03/21 03:09:09;;;;;;;10.93;8.25;;;7.40;99.90;;;;;;4998365;28;20226;-77
2021/03/21 03:11:42;;;;;;;11.50;8.15;;;7.40;99.90;;;;;;5000255;28;20230;-78
2021/03/21 03:14:14;;;;;;;9.73;7.90;;;7.40;99.90;;;;;;5000505;28;20194;-80
2021/03/21 03:16:51;;;;;;;7.60;6.20;;;7.40;99.90;;;;;;4992577;28;20234;-82
2021/03/21 03:19:33;;;;;;;12.30;8.40;;;7.40;99.90;;;;;;4990064;28;20205;-82
2021/03/21 03:22:08;;;;;;;9.50;4.88;;;7.40;99.90;;;;;;4988893;28;20216;-83
2021/03/21 03:24:39;;;;;;;9.32;4.32;;;7.30;99.90;;;;;;4988607;28;20198;-81
2021/03/21 03:27:12;;;;;;;7.90;4.68;;;7.30;99.90;;;;;;4986799;28;20657;-82
2021/03/21 03:29:41;;;;;;;7.15;4.63;;;7.30;99.90;;;;;;4988620;28;20204;-82
2021/03/21 03:32:13;;;;;;;6.00;4.72;;;7.30;99.90;;;;;;4986348;28;20274;-81
2021/03/21 03:34:43;;;;;;;13.02;5.20;;;7.20;99.90;;;;;;4988726;28;20227;-82
2021/03/21 03:37:10;;;;;;;9.32;4.90;;;7.20;99.90;;;;;;4986648;28;20230;-82
2021/03/21 03:39:38;;;;;;;10.07;5.45;;;7.20;99.90;;;;;;4984067;28;20209;-82
2021/03/21 03:42:11;;;;;;;10.45;4.30;;;7.10;99.90;;;;;;4987645;28;20317;-81
2021/03/21 03:44:46;;;;;;;12.30;4.75;;;7.10;99.90;;;;;;4988280;28;20213;-82
2021/03/21 03:47:19;;;;;;;8.63;3.88;;;7.10;99.90;;;;;;4988015;28;20768;-79
2021/03/21 03:49:57;;;;;;;8.88;3.90;;;7.20;99.90;;;;;;4987278;28;20263;-82
2021/03/21 03:52:45;;;;;;;8.85;3.30;;;7.20;99.90;;;;;;4984229;28;20575;-81
2021/03/21 03:55:17;;;;;;;14.25;4.65;;;7.20;99.90;;;;;;4988081;28;20273;-81
2021/03/21 03:57:49;;;;;;;5.70;4.40;;;7.20;99.90;;;;;;4985387;28;20250;-82
2021/03/21 04:00:26;;;;;;;6.88;3.53;;;7.20;99.90;;;;;;4984362;28;20302;-81
2021/03/21 04:03:06;;;;;;;7.88;3.95;;;7.20;99.90;;;;;;4987322;28;20222;-83
2021/03/21 04:05:40;;;;;;;7.97;3.28;;;7.20;99.90;;;;;;4992990;28;20194;-79
2021/03/21 04:08:17;;;;;;;7.72;3.95;;;7.20;99.90;;;;;;4997312;28;20205;-79
2021/03/21 04:10:49;;;;;;;6.05;3.47;;;7.20;99.90;;;;;;4996884;28;20255;-80
2021/03/21 04:13:22;;;;;;;8.85;3.97;;;7.20;99.90;;;;;;4996528;28;20227;-81
2021/03/21 04:15:53;;;;;;;8.48;3.83;;;7.20;99.90;;;;;;4987702;28;20234;-82
2021/03/21 04:18:27;;;;;;;9.02;4.32;;;7.20;99.90;;;;;;4988517;28;20265;-80
2021/03/21 04:21:01;;;;;;;12.95;5.35;;;7.20;99.90;;;;;;4990608;28;20237;-80
2021/03/21 04:23:37;;;;;;;14.88;4.45;;;7.10;99.90;;;;;;4986243;28;20227;-83
2021/03/21 04:26:09;;;;;;;9.63;5.28;;;7.10;99.90;;;;;;4993172;28;20259;-81
2021/03/21 04:28:42;;;;;;;9.68;6.85;;;7.10;99.90;;;;;;4993038;28;20203;-81
2021/03/21 04:31:13;;;;;;;10.10;7.05;;;7.20;99.90;;;;;;4993150;28;20203;-81
2021/03/21 04:33:45;;;;;;;13.75;7.70;;;7.10;99.90;;;;;;4992739;28;20250;-82
2021/03/21 04:36:15;;;;;;;11.75;7.35;;;7.10;99.90;;;;;;4992859;28;20266;-80
2021/03/21 04:38:45;;;;;;;15.00;7.75;;;7.10;99.90;;;;;;4990011;28;20206;-80
2021/03/21 04:41:15;;;;;;;12.90;6.18;;;7.10;99.90;;;;;;4989451;28;20357;-81
2021/03/21 04:43:47;;;;;;;9.93;5.50;;;7.10;99.90;;;;;;4980631;28;20219;-81
2021/03/21 04:46:17;;;;;;;11.80;5.20;;;7.10;99.90;;;;;;4985127;28;20289;-82
2021/03/21 04:48:45;;;;;;;8.93;4.53;;;7.00;99.90;;;;;;4986384;28;20203;-83
2021/03/21 04:51:17;;;;;;;8.82;3.90;;;7.00;99.90;;;;;;4986836;28;20310;-82
2021/03/21 04:53:48;;;;;;;8.57;4.32;;;7.10;99.90;;;;;;4986620;28;20215;-82
2021/03/21 04:56:22;;;;;;;9.20;3.88;;;7.10;99.90;;;;;;4985960;28;20239;-82
2021/03/21 04:58:52;;;;;;;12.10;2.80;;;7.10;99.90;;;;;;4986178;28;20209;-81
2021/03/21 05:01:23;;;;;;;9.95;4.32;;;7.10;99.90;;;;;;4985942;28;20230;-82
2021/03/21 05:03:58;;;;;;;16.45;5.00;;;7.10;99.90;;;;;;4981844;28;20219;-83
2021/03/21 05:06:44;;;;;;;11.85;4.90;;;7.20;99.90;;;;;;4985518;28;20229;-81
2021/03/21 05:09:17;;;;;;;12.52;4.47;;;7.10;99.90;;;;;;4984826;28;20226;-79
2021/03/21 05:11:52;;;;;;;17.02;3.75;;;7.10;99.90;;;;;;4991746;28;20218;-80
2021/03/21 05:14:29;;;;;;;14.85;5.30;;;7.10;99.90;;;;;;4992559;28;20207;-81
2021/03/21 05:17:03;;;;;;;13.35;3.60;;;7.10;99.90;;;;;;4991225;28;20219;-79
2021/03/21 05:19:43;;;;;;;10.88;3.47;;;7.10;99.90;;;;;;4991754;28;20212;-82
2021/03/21 05:22:19;;;;;;;19.10;4.10;;;7.10;99.90;;;;;;4984305;28;20231;-81
2021/03/21 05:24:53;;;;;;;25.75;4.45;;;7.10;99.90;;;;;;4995477;28;20211;-80
2021/03/21 05:27:26;;;;;;;10.55;3.33;;;7.10;99.90;;;;;;4996934;28;20218;-81
2021/03/21 05:29:59;;;;;;;20.63;4.95;;;7.10;99.90;;;;;;5000816;28;20240;-80
2021/03/21 05:32:26;;;;;;;19.85;4.18;;;7.00;99.90;;;;;;4988219;28;20294;-81
2021/03/21 05:34:56;;;;;;;17.67;5.60;;;7.00;99.90;;;;;;4991295;28;20206;-79
2021/03/21 05:37:45;;;;;;;26.77;8.02;;;7.00;99.90;;;;;;4986959;28;20246;-80
2021/03/21 05:41:07;;;;;;;18.42;6.25;;;7.00;99.90;;;;;;4991013;28;20266;-80
2021/03/21 05:44:07;;;;;;;17.60;5.47;;;6.90;99.90;;;;;;4984595;28;20284;-80
2021/03/21 05:47:07;;;;;;;14.50;5.88;;;7.00;99.90;;;;;;4986536;28;20242;-80
2021/03/21 05:50:02;;;;;;;20.70;6.63;;;7.00;99.90;;;;;;4992815;28;20209;-81
2021/03/21 05:52:59;;;;;;;20.98;5.55;;;7.00;99.90;;;;;;4989534;28;20202;-82
2021/03/21 05:55:46;;;;;;;25.08;6.55;;;7.10;99.90;;;;;;4991160;28;20262;-81
2021/03/21 05:59:05;;;;;;;21.88;5.78;;;7.10;99.90;;;;;;4989531;28;20273;-82
2021/03/21 06:02:10;;;;;;;23.13;5.38;;;7.10;99.90;;;;;;4972330;28;20318;-81
2021/03/21 06:05:23;;;;;;;36.28;6.03;;;7.10;99.90;;;;;;4943899;29;20202;-82
2021/03/21 06:08:10;;;;;;;24.33;6.63;;;7.00;99.90;;;;;;4990777;28;20248;-82
2021/03/21 06:11:24;;;;;;;24.58;6.18;;;7.00;99.90;;;;;;4992073;28;20262;-82
2021/03/21 06:14:03;;;;;;;23.60;7.22;;;7.10;99.90;;;;;;4978328;28;20766;-81
2021/03/21 06:17:11;;;;;;;21.00;6.25;;;7.10;99.90;;;;;;4981285;28;20310;-80
2021/03/21 06:20:22;;;;;;;23.67;5.82;;;7.20;99.90;;;;;;4984618;28;20207;-82
2021/03/21 06:23:12;;;;;;;27.05;6.72;;;7.20;99.90;;;;;;4963830;28;20230;-83
2021/03/21 06:25:53;;;;;;;31.95;8.00;;;7.20;99.90;;;;;;4988804;28;20207;-78
2021/03/21 06:28:54;;;;;;;17.88;5.85;;;7.20;99.90;;;;;;4989135;28;20206;-81
2021/03/21 06:31:56;;;;;;;32.33;7.75;;;7.20;99.90;;;;;;4985372;28;20230;-83
2021/03/21 06:34:31;;;;;;;31.92;7.43;;;7.30;99.90;;;;;;4983544;28;20575;-81
2021/03/21 06:37:03;;;;;;;36.63;9.15;;;7.30;99.90;;;;;;4986012;28;20233;-82
2021/03/21 06:40:07;;;;;;;28.83;8.00;;;7.20;99.90;;;;;;4984694;28;20211;-82
2021/03/21 06:43:00;;;;;;;25.52;7.55;;;7.10;99.90;;;;;;4981986;28;20214;-82
2021/03/21 06:45:55;;;;;;;29.10;6.82;;;7.10;99.90;;;;;;4976244;28;20214;-82
2021/03/21 06:48:55;;;;;;;23.38;7.53;;;7.10;99.90;;;;;;4987084;28;20281;-82
2021/03/21 06:51:51;;;;;;;28.20;8.32;;;7.10;99.90;;;;;;4989527;28;20262;-81
2021/03/21 06:54:36;;;;;;;39.90;7.05;;;7.10;99.90;;;;;;4981421;28;20259;-83
2021/03/21 06:57:45;;;;;;;32.30;7.70;;;7.10;99.90;;;;;;4982779;28;20232;-81
2021/03/21 07:00:54;;;;;;;39.70;9.25;;;7.10;99.90;;;;;;4988023;28;20234;-82
2021/03/21 07:04:00;;;;;;;28.08;8.13;;;7.20;99.90;;;;;;4978915;28;20285;-81
2021/03/21 07:07:06;;;;;;;21.17;6.78;;;7.20;99.90;;;;;;4989433;28;20226;-80
2021/03/21 07:10:07;;;;;;;48.08;9.27;;;7.30;99.90;;;;;;4981419;28;20292;-80
2021/03/21 07:12:50;;;;;;;37.00;9.45;;;7.20;99.90;;;;;;4983851;28;20419;-80
2021/03/21 07:15:41;;;;;;;37.42;10.35;;;7.30;99.90;;;;;;4987980;28;20211;-83
2021/03/21 07:18:38;;;;;;;37.47;11.55;;;7.40;99.90;;;;;;4988722;28;20195;-80
2021/03/21 07:24:56;;;;;;;31.95;9.35;;;7.40;99.90;;;;;;4950449;29;20207;-80
2021/03/21 07:27:42;;;;;;;37.70;9.93;;;7.40;99.90;;;;;;4984712;28;20233;-81
2021/03/21 07:30:13;;;;;;;35.30;9.55;;;7.40;99.90;;;;;;4997076;28;20286;-80
2021/03/21 07:33:23;;;;;;;49.83;11.95;;;7.20;99.90;;;;;;5000682;28;20237;-79
2021/03/21 07:40:33;;;;;;;47.85;10.52;;;7.40;99.90;;;;;;4936701;29;20217;-80
2021/03/21 07:57:27;;;;;;;41.08;11.52;;;7.50;99.90;;;;;;4821329;29;20308;-82
2021/03/21 08:00:01;;;;;;;42.65;12.32;;;7.50;99.90;;;;;;4859000;29;20260;-85
2021/03/21 08:02:28;;;;;;;36.22;12.98;;;7.50;99.90;;;;;;4930853;28;20289;-80
2021/03/21 08:05:02;;;;;;;37.92;9.32;;;7.50;99.90;;;;;;4980859;28;20240;-78
2021/03/21 08:07:33;;;;;;;36.25;9.20;;;7.40;99.90;;;;;;4994894;28;20220;-82
2021/03/21 08:10:00;;;;;;;35.83;10.48;;;7.60;99.90;;;;;;4991905;28;20263;-80
2021/03/21 08:12:37;;;;;;;39.70;10.57;;;7.50;99.90;;;;;;4993211;28;20199;-82
2021/03/21 08:15:28;;;;;;;31.30;7.93;;;7.50;99.90;;;;;;4993276;28;20208;-83
2021/03/21 08:18:40;;;;;;;58.80;18.23;;;7.60;99.90;;;;;;4994298;28;20238;-81
2021/03/21 08:27:51;;;;;;;33.60;10.35;;;7.90;99.90;;;;;;4986362;28;20182;-83
2021/03/21 08:30:21;;;;;;;36.30;9.75;;;7.90;99.90;;;;;;4986600;28;20208;-81
2021/03/21 08:33:18;;;;;;;38.90;10.05;;;7.90;99.90;;;;;;4987651;28;20213;-83
2021/03/21 08:39:19;;;;;;;37.58;10.50;;;8.10;99.90;;;;;;4962916;29;20574;-81
2021/03/21 08:42:30;;;;;;;28.75;10.23;;;8.30;99.90;;;;;;4972108;28;20228;-84
2021/03/21 08:45:21;;;;;;;46.00;10.10;;;8.40;99.90;;;;;;4980364;28;20232;-82
2021/03/21 08:48:21;;;;;;;41.83;9.55;;;8.40;99.90;;;;;;4984167;28;20225;-81
2021/03/21 08:55:17;;;;;;;33.42;9.77;;;8.70;99.90;;;;;;4960640;28;20220;-85
2021/03/21 08:58:27;;;;;;;30.23;9.27;;;8.80;99.90;;;;;;4957734;29;20288;-83
2021/03/21 09:01:19;;;;;;;38.20;10.15;;;8.80;99.90;;;;;;4960738;28;20350;-81
2021/03/21 09:48:30;;;;;;;27.85;9.82;;;10.00;99.90;;;;;;4979086;28;20209;-75
2021/03/21 09:51:02;;;;;;;38.35;12.35;;;9.90;99.90;;;;;;4975442;28;20253;-75
2021/03/21 09:54:03;;;;;;;37.45;10.65;;;10.20;99.90;;;;;;4976337;28;20225;-76
2021/03/21 09:56:40;;;;;;;39.55;10.57;;;10.30;99.80;;;;;;4974084;28;20205;-77
2021/03/21 09:59:21;;;;;;;38.40;9.85;;;10.20;99.70;;;;;;4966308;28;20685;-77
2021/03/21 10:02:05;;;;;;;34.08;10.15;;;10.30;99.90;;;;;;4964627;28;20223;-74
2021/03/21 10:04:40;;;;;;;36.28;10.10;;;10.30;99.40;;;;;;4964588;28;20205;-76
2021/03/21 10:07:15;;;;;;;32.92;10.57;;;10.30;99.80;;;;;;4965806;28;20288;-78
2021/03/21 10:09:46;;;;;;;33.10;11.27;;;10.40;99.00;;;;;;4967651;28;20671;-77
2021/03/21 10:12:15;;;;;;;38.45;12.82;;;10.70;98.80;;;;;;4970889;28;20649;-78
2021/03/21 10:15:00;;;;;;;32.10;9.20;;;11.20;99.90;;;;;;4964455;28;20454;-74
2021/03/21 10:17:46;;;;;;;36.42;10.68;;;11.30;98.00;;;;;;4971168;28;20444;-73
2021/03/21 10:20:15;;;;;;;33.58;10.02;;;11.60;96.30;;;;;;4963455;28;20224;-76
2021/03/21 10:22:57;;;;;;;37.70;10.20;;;11.40;96.30;;;;;;4966973;28;20238;-77
2021/03/21 10:25:55;;;;;;;30.92;9.85;;;11.20;97.30;;;;;;4966275;28;20216;-76
2021/03/21 10:28:47;;;;;;;30.05;9.10;;;11.00;96.90;;;;;;4970156;28;20669;-76
2021/03/21 10:31:34;;;;;;;40.33;12.18;;;11.20;97.60;;;;;;4960326;28;20233;-76
2021/03/21 10:34:49;;;;;;;32.00;10.15;;;11.10;97.10;;;;;;4968358;28;20229;-78
2021/03/21 10:37:57;;;;;;;28.30;9.73;;;11.20;96.40;;;;;;4970774;28;20245;-75
2021/03/21 10:40:44;;;;;;;38.55;10.95;;;11.60;97.30;;;;;;4963470;28;20227;-79
2021/03/21 10:43:35;;;;;;;33.92;11.57;;;11.50;95.80;;;;;;4976333;28;20204;-77
2021/03/21 10:46:03;;;;;;;36.00;10.25;;;11.30;95.80;;;;;;4970059;28;20211;-72
2021/03/21 10:48:52;;;;;;;32.85;10.35;;;11.30;95.90;;;;;;4974448;28;20203;-73
2021/03/21 10:51:19;;;;;;;30.67;9.10;;;11.30;95.60;;;;;;4966344;28;20258;-72
2021/03/21 10:54:16;;;;;;;39.03;10.00;;;11.10;95.70;;;;;;4964198;28;20282;-73
2021/03/21 10:57:03;;;;;;;33.20;10.20;;;11.00;95.80;;;;;;4971843;28;20218;-72
2021/03/21 10:59:31;;;;;;;37.58;9.73;;;10.80;96.30;;;;;;4959959;28;20202;-73
2021/03/21 11:02:23;;;;;;;34.90;10.38;;;10.80;96.90;;;;;;4968429;28;20265;-73
2021/03/21 11:05:01;;;;;;;27.40;8.57;;;10.70;96.70;;;;;;4972158;28;20203;-73
2021/03/21 11:07:28;;;;;;;30.40;8.88;;;10.60;96.80;;;;;;4968432;28;20206;-73
2021/03/21 11:09:59;;;;;;;39.60;9.50;;;10.60;96.80;;;;;;4966379;28;20222;-74
2021/03/21 11:12:32;;;;;;;26.73;8.60;;;10.60;97.00;;;;;;4966312;28;20230;-73
2021/03/21 11:15:19;;;;;;;26.15;7.75;;;10.80;97.00;;;;;;4971576;28;20306;-72
2021/03/21 11:17:47;;;;;;;30.60;9.40;;;11.10;96.50;;;;;;4963110;28;20290;-73
2021/03/21 11:20:27;;;;;;;35.00;8.13;;;11.10;96.00;;;;;;4973236;28;20240;-71
2021/03/21 11:22:56;;;;;;;20.80;8.05;;;11.20;96.10;;;;;;4962123;28;20206;-73
2021/03/21 11:25:35;;;;;;;34.28;9.20;;;11.30;96.30;;;;;;4971122;28;20211;-70
2021/03/21 11:28:02;;;;;;;23.23;7.55;;;11.40;95.60;;;;;;4967146;28;20236;-70
2021/03/21 11:30:29;;;;;;;31.27;9.63;;;11.20;94.80;;;;;;4959704;28;20222;-72
2021/03/21 11:33:15;;;;;;;30.88;8.88;;;11.20;95.40;;;;;;4969462;28;20223;-72
2021/03/21 11:35:42;;;;;;;29.02;9.63;;;11.30;95.50;;;;;;4972841;28;20553;-71
2021/03/21 11:38:29;;;;;;;20.92;8.40;;;11.30;95.70;;;;;;4966372;28;20207;-72
2021/03/21 11:40:59;;;;;;;32.33;9.35;;;11.30;95.70;;;;;;4963382;28;20218;-73
2021/03/21 11:43:29;;;;;;;30.75;8.98;;;11.00;95.90;;;;;;4966352;28;20205;-72
2021/03/21 11:46:13;;;;;;;30.98;9.82;;;11.10;95.90;;;;;;4970471;28;20217;-73
2021/03/21 11:48:41;;;;;;;30.25;8.23;;;10.80;96.00;;;;;;4960049;28;20248;-72
2021/03/21 11:51:11;;;;;;;27.83;8.73;;;10.60;96.50;;;;;;4972216;28;20232;-73
2021/03/21 11:53:39;;;;;;;30.85;8.10;;;10.40;96.80;;;;;;4965310;28;20226;-70
2021/03/21 11:56:13;;;;;;;35.40;10.10;;;10.40;96.90;;;;;;4959455;28;20213;-71
2021/03/21 11:58:44;;;;;;;26.50;7.40;;;10.30;97.10;;;;;;4971308;28;20675;-72
2021/03/21 12:01:16;;;;;;;22.35;7.13;;;10.40;97.50;;;;;;4964824;28;20230;-72
2021/03/21 12:03:47;;;;;;;32.50;8.27;;;10.60;96.60;;;;;;4965172;28;20708;-73
2021/03/21 12:06:29;;;;;;;26.42;8.38;;;10.60;96.50;;;;;;4964473;28;20206;-72
2021/03/21 12:08:57;;;;;;;27.60;7.95;;;10.70;96.50;;;;;;4960753;28;20209;-72
2021/03/21 12:11:37;;;;;;;30.77;8.15;;;10.90;96.10;;;;;;4957294;28;20314;-72
2021/03/21 12:14:43;;;;;;;25.65;6.82;;;11.00;95.70;;;;;;4960594;28;20289;-74
2021/03/21 12:17:35;;;;;;;25.63;8.60;;;11.00;95.70;;;;;;4973437;28;20574;-72
2021/03/21 12:20:41;;;;;;;30.83;8.27;;;10.70;96.00;;;;;;4967016;28;20230;-74
2021/03/21 12:23:28;;;;;;;25.30;7.70;;;10.60;96.20;;;;;;4970328;28;20691;-72
2021/03/21 12:26:21;;;;;;;26.00;8.07;;;10.60;96.20;;;;;;4960116;28;20245;-72
2021/03/21 12:29:00;;;;;;;25.45;6.60;;;10.80;96.10;;;;;;4952902;28;20215;-74
2021/03/21 12:31:30;;;;;;;29.85;8.88;;;10.60;95.80;;;;;;4961892;28;20217;-73
2021/03/21 12:33:58;;;;;;;33.35;7.93;;;10.30;96.00;;;;;;4967537;28;20203;-73
2021/03/21 12:36:29;;;;;;;28.20;8.05;;;10.50;96.30;;;;;;4972721;28;20208;-73
2021/03/21 12:39:20;;;;;;;24.80;7.53;;;10.70;96.00;;;;;;4955501;28;20290;-74
2021/03/21 12:41:47;;;;;;;22.13;7.53;;;10.90;95.50;;;;;;4972231;28;20223;-72
2021/03/21 12:44:17;;;;;;;29.77;6.95;;;11.30;94.80;;;;;;4963647;28;20214;-71
2021/03/21 12:46:47;;;;;;;29.95;7.47;;;11.40;94.40;;;;;;4959421;28;20226;-73
2021/03/21 12:49:34;;;;;;;19.85;7.13;;;11.20;94.10;;;;;;4962589;28;20228;-73
2021/03/21 12:52:05;;;;;;;27.60;8.70;;;11.10;93.80;;;;;;4969760;28;20612;-72
2021/03/21 12:54:33;;;;;;;26.40;6.75;;;10.80;94.20;;;;;;4960801;28;20203;-72
2021/03/21 12:56:59;;;;;;;29.65;8.00;;;10.40;94.60;;;;;;4964406;28;20293;-74
2021/03/21 12:59:26;;;;;;;20.73;6.85;;;10.10;95.70;;;;;;4965453;28;20207;-73
2021/03/21 13:01:53;;;;;;;26.30;9.07;;;10.10;96.60;;;;;;4960653;28;20226;-74
2021/03/21 13:04:21;;;;;;;23.33;7.43;;;10.10;97.10;;;;;;4965469;28;20214;-73
2021/03/21 13:06:48;;;;;;;34.08;7.78;;;10.20;97.30;;;;;;4965256;28;20236;-74
2021/03/21 13:09:15;;;;;;;22.58;7.78;;;10.40;97.00;;;;;;4961046;28;20291;-75
2021/03/21 13:11:42;;;;;;;28.50;7.15;;;10.40;95.80;;;;;;4961342;28;20670;-73
2021/03/21 13:14:09;;;;;;;29.25;6.40;;;10.40;96.10;;;;;;4960207;28;20235;-75
2021/03/21 13:16:36;;;;;;;25.67;7.45;;;10.30;96.20;;;;;;4974836;28;20345;-72
2021/03/21 13:19:03;;;;;;;26.75;7.47;;;10.50;96.80;;;;;;4972265;28;20206;-74
2021/03/21 13:21:29;;;;;;;39.17;8.18;;;10.40;96.70;;;;;;4968368;28;20218;-76
2021/03/21 13:23:56;;;;;;;22.65;6.85;;;10.30;97.10;;;;;;4973849;28;20206;-73
2021/03/21 13:26:23;;;;;;;24.50;7.78;;;10.20;97.10;;;;;;4962875;28;20423;-73
2021/03/21 13:28:50;;;;;;;24.23;7.50;;;10.30;97.50;;;;;;4973628;28;20202;-72
2021/03/21 13:31:17;;;;;;;20.33;6.13;;;10.20;97.00;;;;;;4962737;28;20305;-73
2021/03/21 13:33:44;;;;;;;25.33;7.00;;;10.00;97.10;;;;;;4961742;28;20298;-76
2021/03/21 13:36:11;;;;;;;42.83;7.93;;;10.00;97.60;;;;;;4968347;28;20210;-75
2021/03/21 13:38:38;;;;;;;29.52;7.47;;;10.10;96.90;;;;;;4961344;28;20669;-75
2021/03/21 13:41:06;;;;;;;35.53;9.15;;;10.20;96.90;;;;;;4971246;28;20246;-76
2021/03/21 13:43:34;;;;;;;29.25;8.00;;;10.10;97.10;;;;;;4974236;28;20286;-72
2021/03/21 13:46:02;;;;;;;26.98;7.43;;;10.10;97.30;;;;;;4963150;28;21279;-75
2021/03/21 13:48:30;;;;;;;21.85;5.68;;;10.00;97.10;;;;;;4963516;28;20286;-76
2021/03/21 13:50:58;;;;;;;29.10;6.75;;;9.90;97.60;;;;;;4972547;28;20598;-76
2021/03/21 13:53:29;;;;;;;20.40;6.47;;;9.90;97.20;;;;;;4968072;28;20230;-76
2021/03/21 13:55:58;;;;;;;23.00;6.65;;;9.80;97.10;;;;;;4974255;28;20230;-75
2021/03/21 13:58:25;;;;;;;27.63;6.18;;;9.80;97.50;;;;;;4969664;28;21327;-70
2021/03/21 14:00:53;;;;;;;21.38;5.50;;;9.70;96.90;;;;;;4972484;28;20219;-71
2021/03/21 14:03:21;;;;;;;26.67;5.93;;;9.70;97.20;;;;;;4979625;28;20191;-73
2021/03/21 14:05:48;;;;;;;25.27;7.25;;;9.60;97.10;;;;;;4971606;28;20636;-74
2021/03/21 14:08:17;;;;;;;21.40;6.60;;;9.60;97.00;;;;;;4973434;28;20203;-76
2021/03/21 14:10:44;;;;;;;32.90;7.80;;;9.60;97.30;;;;;;4973419;28;20218;-73
2021/03/21 14:13:10;;;;;;;22.67;6.68;;;9.70;97.10;;;;;;4969736;28;20233;-73
2021/03/21 14:15:39;;;;;;;23.40;8.02;;;9.80;97.30;;;;;;4975973;28;20226;-77
2021/03/21 14:18:08;;;;;;;24.17;7.18;;;9.70;97.20;;;;;;4969204;28;20695;-76
2021/03/21 14:20:38;;;;;;;18.83;6.32;;;9.70;97.10;;;;;;4971884;28;20309;-76
2021/03/21 14:23:05;;;;;;;24.75;7.07;;;9.70;97.50;;;;;;4959438;28;20203;-72
2021/03/21 14:25:33;;;;;;;23.58;7.03;;;9.70;97.10;;;;;;4957497;28;20286;-71
2021/03/21 14:28:00;;;;;;;20.98;6.38;;;9.80;97.30;;;;;;4961575;28;20211;-73
2021/03/21 14:30:28;;;;;;;20.75;5.18;;;9.80;97.50;;;;;;4962004;28;20230;-73
2021/03/21 14:32:55;;;;;;;29.73;7.47;;;9.60;97.90;;;;;;4964226;28;20228;-73
2021/03/21 14:35:25;;;;;;;44.00;9.30;;;9.60;98.30;;;;;;4958010;28;20213;-73
2021/03/21 14:37:52;;;;;;;32.78;6.80;;;9.40;98.80;;;;;;4968902;28;20253;-72
2021/03/21 14:40:21;;;;;;;28.98;8.30;;;9.20;99.40;;;;;;4965632;28;20237;-72
2021/03/21 14:42:50;;;;;;;25.35;8.00;;;9.10;99.80;;;;;;4975007;28;20216;-70
2021/03/21 14:45:17;;;;;;;34.58;8.15;;;9.20;99.80;;;;;;4960948;28;20244;-72
2021/03/21 14:47:45;;;;;;;23.23;7.28;;;9.20;99.70;;;;;;4967298;28;20224;-71
2021/03/21 14:50:16;;;;;;;34.05;7.50;;;9.30;99.40;;;;;;4963172;28;20225;-69
2021/03/21 14:52:46;;;;;;;32.08;8.88;;;9.40;99.40;;;;;;4963091;28;20230;-70
2021/03/21 14:55:13;;;;;;;19.40;6.90;;;9.30;98.80;;;;;;4968576;28;20229;-71
2021/03/21 14:57:40;;;;;;;20.77;5.63;;;9.10;98.80;;;;;;4968340;28;20201;-71
2021/03/21 15:00:11;;;;;;;16.95;5.60;;;9.00;99.00;;;;;;4967347;28;20229;-70
2021/03/21 15:02:38;;;;;;;19.52;7.90;;;9.00;99.30;;;;;;4973629;28;20201;-71
2021/03/21 15:05:05;;;;;;;22.48;8.27;;;9.10;99.20;;;;;;4972210;28;20198;-71
2021/03/21 15:07:32;;;;;;;22.42;8.15;;;9.00;99.40;;;;;;4966968;28;20206;-73
2021/03/21 15:09:59;;;;;;;28.58;6.50;;;8.90;99.40;;;;;;4971086;28;20248;-71